Terminal Aerodrome Forecast
Issued by NWS Topeka, KS

Home | Current Version | Previous Version | Text Only | Print | Product List | Glossary Off
Versions: 1 2 3 4 5 6 7 8 9 10 11 12 13 14 15 16

000
FTUS43 KTOP 161720
TAFTOP
TAF
KTOP 161720Z 1618/1718 22011G20KT P6SM SKC
     FM162300 21009KT P6SM SKC
     FM170300 21007KT P6SM SKC WS020/23035KT
     FM171200 20007KT P6SM SKC=

USA.gov is the U.S. government's official web portal to all federal, state and local government web resources and services.